sensor_id;sensor_type;location;lat;lon;timestamp;P1;durP1;ratioP1;P2;durP2;ratioP2
75459;SDS011;64039;53.060;9.342;2022-10-16T00:00:56;6.55;;;2.28;;
75459;SDS011;64039;53.060;9.342;2022-10-16T00:03:22;6.45;;;2.28;;
75459;SDS011;64039;53.060;9.342;2022-10-16T00:05:48;4.50;;;2.00;;
75459;SDS011;64039;53.060;9.342;2022-10-16T00:08:16;6.80;;;1.90;;
75459;SDS011;64039;53.060;9.342;2022-10-16T00:10:41;2.42;;;1.85;;
75459;SDS011;64039;53.060;9.342;2022-10-16T00:13:07;4.13;;;1.80;;
75459;SDS011;64039;53.060;9.342;2022-10-16T00:15:35;3.95;;;1.63;;
75459;SDS011;64039;53.060;9.342;2022-10-16T00:18:01;4.72;;;1.20;;
75459;SDS011;64039;53.060;9.342;2022-10-16T00:20:28;2.60;;;1.40;;
75459;SDS011;64039;53.060;9.342;2022-10-16T00:22:53;5.05;;;1.40;;
75459;SDS011;64039;53.060;9.342;2022-10-16T00:25:19;6.18;;;1.60;;
75459;SDS011;64039;53.060;9.342;2022-10-16T00:27:44;5.50;;;1.40;;
75459;SDS011;64039;53.060;9.342;2022-10-16T00:30:10;2.53;;;1.40;;
75459;SDS011;64039;53.060;9.342;2022-10-16T00:32:35;5.28;;;1.38;;
75459;SDS011;64039;53.060;9.342;2022-10-16T00:35:01;3.03;;;1.60;;
75459;SDS011;64039;53.060;9.342;2022-10-16T00:37:29;3.10;;;1.13;;
75459;SDS011;64039;53.060;9.342;2022-10-16T00:39:54;3.95;;;1.50;;
75459;SDS011;64039;53.060;9.342;2022-10-16T00:42:20;3.42;;;1.38;;
75459;SDS011;64039;53.060;9.342;2022-10-16T00:47:19;4.70;;;1.20;;
75459;SDS011;64039;53.060;9.342;2022-10-16T00:50:30;5.22;;;1.50;;
75459;SDS011;64039;53.060;9.342;2022-10-16T00:52:48;2.53;;;1.27;;
75459;SDS011;64039;53.060;9.342;2022-10-16T00:55:18;1.92;;;1.27;;
75459;SDS011;64039;53.060;9.342;2022-10-16T00:57:47;1.45;;;1.08;;
75459;SDS011;64039;53.060;9.342;2022-10-16T01:00:19;8.45;;;1.52;;
75459;SDS011;64039;53.060;9.342;2022-10-16T01:02:53;2.72;;;1.20;;
75459;SDS011;64039;53.060;9.342;2022-10-16T01:05:22;2.72;;;1.35;;
75459;SDS011;64039;53.060;9.342;2022-10-16T01:08:06;2.08;;;1.17;;
75459;SDS011;64039;53.060;9.342;2022-10-16T01:15:56;2.60;;;1.35;;
75459;SDS011;64039;53.060;9.342;2022-10-16T01:18:37;2.92;;;1.63;;
75459;SDS011;64039;53.060;9.342;2022-10-16T01:21:08;5.68;;;1.17;;
75459;SDS011;64039;53.060;9.342;2022-10-16T01:30:02;3.95;;;1.30;;
75459;SDS011;64039;53.060;9.342;2022-10-16T01:32:40;2.80;;;1.30;;
75459;SDS011;64039;53.060;9.342;2022-10-16T01:40:20;3.40;;;1.03;;
75459;SDS011;64039;53.060;9.342;2022-10-16T01:42:50;4.18;;;1.30;;
75459;SDS011;64039;53.060;9.342;2022-10-16T01:45:21;3.47;;;1.23;;
75459;SDS011;64039;53.060;9.342;2022-10-16T01:47:47;5.03;;;1.20;;
75459;SDS011;64039;53.060;9.342;2022-10-16T01:50:15;4.30;;;1.50;;
75459;SDS011;64039;53.060;9.342;2022-10-16T01:52:43;2.63;;;1.30;;
75459;SDS011;64039;53.060;9.342;2022-10-16T01:55:16;3.35;;;1.17;;
75459;SDS011;64039;53.060;9.342;2022-10-16T01:57:47;4.80;;;1.10;;
75459;SDS011;64039;53.060;9.342;2022-10-16T02:00:17;3.13;;;1.00;;
75459;SDS011;64039;53.060;9.342;2022-10-16T02:02:47;3.53;;;1.10;;
75459;SDS011;64039;53.060;9.342;2022-10-16T02:07:42;5.43;;;1.40;;
75459;SDS011;64039;53.060;9.342;2022-10-16T02:10:09;2.65;;;1.10;;
75459;SDS011;64039;53.060;9.342;2022-10-16T02:12:35;4.75;;;1.10;;
75459;SDS011;64039;53.060;9.342;2022-10-16T02:15:05;6.30;;;1.52;;
75459;SDS011;64039;53.060;9.342;2022-10-16T02:17:31;1.65;;;0.98;;
75459;SDS011;64039;53.060;9.342;2022-10-16T02:19:56;3.45;;;1.42;;
75459;SDS011;64039;53.060;9.342;2022-10-16T02:24:58;4.13;;;1.42;;
75459;SDS011;64039;53.060;9.342;2022-10-16T02:30:13;4.68;;;1.38;;
75459;SDS011;64039;53.060;9.342;2022-10-16T02:32:46;2.05;;;1.30;;
75459;SDS011;64039;53.060;9.342;2022-10-16T02:35:14;4.35;;;1.55;;
75459;SDS011;64039;53.060;9.342;2022-10-16T02:37:42;2.83;;;1.40;;
75459;SDS011;64039;53.060;9.342;2022-10-16T02:40:08;4.00;;;1.30;;
75459;SDS011;64039;53.060;9.342;2022-10-16T02:42:34;3.15;;;1.30;;
75459;SDS011;64039;53.060;9.342;2022-10-16T02:45:02;3.20;;;1.40;;
75459;SDS011;64039;53.060;9.342;2022-10-16T02:47:28;5.80;;;1.45;;
75459;SDS011;64039;53.060;9.342;2022-10-16T02:49:54;2.72;;;1.30;;
75459;SDS011;64039;53.060;9.342;2022-10-16T02:52:21;2.40;;;1.10;;
75459;SDS011;64039;53.060;9.342;2022-10-16T02:54:47;5.13;;;1.40;;
75459;SDS011;64039;53.060;9.342;2022-10-16T02:57:14;4.93;;;1.38;;
75459;SDS011;64039;53.060;9.342;2022-10-16T02:59:40;3.60;;;1.38;;
75459;SDS011;64039;53.060;9.342;2022-10-16T03:02:06;4.50;;;1.70;;
75459;SDS011;64039;53.060;9.342;2022-10-16T03:04:31;3.17;;;1.40;;
75459;SDS011;64039;53.060;9.342;2022-10-16T03:06:57;6.80;;;1.45;;
75459;SDS011;64039;53.060;9.342;2022-10-16T03:09:22;8.15;;;1.70;;
75459;SDS011;64039;53.060;9.342;2022-10-16T03:11:48;1.90;;;1.40;;
75459;SDS011;64039;53.060;9.342;2022-10-16T03:14:13;5.97;;;1.45;;
75459;SDS011;64039;53.060;9.342;2022-10-16T03:16:39;5.28;;;1.52;;
75459;SDS011;64039;53.060;9.342;2022-10-16T03:19:04;4.40;;;1.90;;
75459;SDS011;64039;53.060;9.342;2022-10-16T03:21:30;5.68;;;1.67;;
75459;SDS011;64039;53.060;9.342;2022-10-16T03:23:55;5.20;;;2.08;;
75459;SDS011;64039;53.060;9.342;2022-10-16T03:26:21;4.43;;;1.88;;
75459;SDS011;64039;53.060;9.342;2022-10-16T03:28:46;4.25;;;1.63;;
75459;SDS011;64039;53.060;9.342;2022-10-16T03:31:12;3.53;;;1.70;;
75459;SDS011;64039;53.060;9.342;2022-10-16T03:33:37;5.22;;;1.65;;
75459;SDS011;64039;53.060;9.342;2022-10-16T03:36:03;3.50;;;1.50;;
75459;SDS011;64039;53.060;9.342;2022-10-16T03:38:29;6.57;;;1.77;;
75459;SDS011;64039;53.060;9.342;2022-10-16T03:40:54;5.80;;;1.67;;
75459;SDS011;64039;53.060;9.342;2022-10-16T03:43:20;5.72;;;1.70;;
75459;SDS011;64039;53.060;9.342;2022-10-16T03:45:45;6.38;;;2.35;;
75459;SDS011;64039;53.060;9.342;2022-10-16T03:48:11;7.85;;;1.92;;
75459;SDS011;64039;53.060;9.342;2022-10-16T03:50:36;6.03;;;1.90;;
75459;SDS011;64039;53.060;9.342;2022-10-16T03:53:02;5.65;;;1.90;;
75459;SDS011;64039;53.060;9.342;2022-10-16T03:55:28;7.82;;;2.28;;
75459;SDS011;64039;53.060;9.342;2022-10-16T03:57:53;6.70;;;2.50;;
75459;SDS011;64039;53.060;9.342;2022-10-16T04:00:19;7.10;;;2.40;;
75459;SDS011;64039;53.060;9.342;2022-10-16T04:02:44;5.88;;;2.35;;
75459;SDS011;64039;53.060;9.342;2022-10-16T04:05:11;5.38;;;2.45;;
75459;SDS011;64039;53.060;9.342;2022-10-16T04:07:36;7.07;;;2.30;;
75459;SDS011;64039;53.060;9.342;2022-10-16T04:10:03;9.07;;;2.83;;
75459;SDS011;64039;53.060;9.342;2022-10-16T04:12:30;6.00;;;2.50;;
75459;SDS011;64039;53.060;9.342;2022-10-16T04:14:55;10.32;;;2.60;;
75459;SDS011;64039;53.060;9.342;2022-10-16T04:17:21;5.07;;;2.42;;
75459;SDS011;64039;53.060;9.342;2022-10-16T04:19:46;7.10;;;2.47;;
75459;SDS011;64039;53.060;9.342;2022-10-16T04:22:12;6.63;;;2.53;;
75459;SDS011;64039;53.060;9.342;2022-10-16T04:24:38;5.85;;;2.22;;
75459;SDS011;64039;53.060;9.342;2022-10-16T04:27:03;6.47;;;2.50;;
75459;SDS011;64039;53.060;9.342;2022-10-16T04:29:29;5.03;;;2.63;;
75459;SDS011;64039;53.060;9.342;2022-10-16T04:31:54;6.57;;;2.75;;
75459;SDS011;64039;53.060;9.342;2022-10-16T04:34:20;6.60;;;2.70;;
75459;SDS011;64039;53.060;9.342;2022-10-16T04:36:48;5.82;;;2.50;;
75459;SDS011;64039;53.060;9.342;2022-10-16T04:39:17;8.70;;;2.55;;
75459;SDS011;64039;53.060;9.342;2022-10-16T04:41:42;8.63;;;2.30;;
75459;SDS011;64039;53.060;9.342;2022-10-16T04:44:08;5.95;;;2.35;;
75459;SDS011;64039;53.060;9.342;2022-10-16T04:46:33;5.43;;;1.85;;
75459;SDS011;64039;53.060;9.342;2022-10-16T04:48:59;9.10;;;2.00;;
75459;SDS011;64039;53.060;9.342;2022-10-16T04:51:24;8.65;;;2.30;;
75459;SDS011;64039;53.060;9.342;2022-10-16T04:53:50;9.40;;;2.40;;
75459;SDS011;64039;53.060;9.342;2022-10-16T04:56:16;8.13;;;2.50;;
75459;SDS011;64039;53.060;9.342;2022-10-16T04:58:41;5.97;;;1.92;;
75459;SDS011;64039;53.060;9.342;2022-10-16T05:01:07;4.78;;;2.13;;
75459;SDS011;64039;53.060;9.342;2022-10-16T05:03:32;5.68;;;2.30;;
75459;SDS011;64039;53.060;9.342;2022-10-16T05:05:58;10.90;;;2.40;;
75459;SDS011;64039;53.060;9.342;2022-10-16T05:08:23;5.22;;;2.17;;
75459;SDS011;64039;53.060;9.342;2022-10-16T05:10:49;7.78;;;2.05;;
75459;SDS011;64039;53.060;9.342;2022-10-16T05:13:14;4.38;;;2.10;;
75459;SDS011;64039;53.060;9.342;2022-10-16T05:15:39;7.15;;;2.75;;
75459;SDS011;64039;53.060;9.342;2022-10-16T05:18:05;6.97;;;2.28;;
75459;SDS011;64039;53.060;9.342;2022-10-16T05:20:30;10.05;;;2.70;;
75459;SDS011;64039;53.060;9.342;2022-10-16T05:22:56;6.47;;;2.72;;
75459;SDS011;64039;53.060;9.342;2022-10-16T05:25:21;7.90;;;3.08;;
75459;SDS011;64039;53.060;9.342;2022-10-16T05:27:47;8.57;;;2.90;;
75459;SDS011;64039;53.060;9.342;2022-10-16T05:30:13;7.50;;;3.17;;
75459;SDS011;64039;53.060;9.342;2022-10-16T05:32:39;6.43;;;2.70;;
75459;SDS011;64039;53.060;9.342;2022-10-16T05:35:05;4.47;;;2.63;;
75459;SDS011;64039;53.060;9.342;2022-10-16T05:37:31;5.13;;;2.42;;
75459;SDS011;64039;53.060;9.342;2022-10-16T05:39:58;4.55;;;2.35;;
75459;SDS011;64039;53.060;9.342;2022-10-16T05:42:23;5.97;;;2.55;;
75459;SDS011;64039;53.060;9.342;2022-10-16T05:44:49;6.90;;;2.88;;
75459;SDS011;64039;53.060;9.342;2022-10-16T05:47:14;5.93;;;2.70;;
75459;SDS011;64039;53.060;9.342;2022-10-16T05:49:39;4.50;;;2.50;;
75459;SDS011;64039;53.060;9.342;2022-10-16T05:52:05;7.30;;;2.55;;
75459;SDS011;64039;53.060;9.342;2022-10-16T05:54:31;6.68;;;3.05;;
75459;SDS011;64039;53.060;9.342;2022-10-16T05:56:56;6.85;;;2.90;;
75459;SDS011;64039;53.060;9.342;2022-10-16T05:59:22;6.15;;;2.90;;
75459;SDS011;64039;53.060;9.342;2022-10-16T06:01:47;7.50;;;3.35;;
75459;SDS011;64039;53.060;9.342;2022-10-16T06:04:13;7.55;;;3.30;;
75459;SDS011;64039;53.060;9.342;2022-10-16T06:06:38;7.60;;;3.47;;
75459;SDS011;64039;53.060;9.342;2022-10-16T06:09:04;6.20;;;3.28;;
75459;SDS011;64039;53.060;9.342;2022-10-16T06:11:30;9.27;;;3.35;;
75459;SDS011;64039;53.060;9.342;2022-10-16T06:13:57;5.95;;;3.65;;
75459;SDS011;64039;53.060;9.342;2022-10-16T06:16:27;14.07;;;3.67;;
75459;SDS011;64039;53.060;9.342;2022-10-16T06:18:53;8.18;;;3.60;;
75459;SDS011;64039;53.060;9.342;2022-10-16T06:21:22;6.32;;;3.58;;
75459;SDS011;64039;53.060;9.342;2022-10-16T06:23:52;9.00;;;3.70;;
75459;SDS011;64039;53.060;9.342;2022-10-16T06:26:20;7.70;;;3.40;;
75459;SDS011;64039;53.060;9.342;2022-10-16T06:28:47;6.68;;;3.60;;
75459;SDS011;64039;53.060;9.342;2022-10-16T06:31:13;7.40;;;3.60;;
75459;SDS011;64039;53.060;9.342;2022-10-16T06:33:40;11.65;;;3.65;;
75459;SDS011;64039;53.060;9.342;2022-10-16T06:36:07;6.32;;;4.00;;
75459;SDS011;64039;53.060;9.342;2022-10-16T06:38:34;8.80;;;3.45;;
75459;SDS011;64039;53.060;9.342;2022-10-16T06:40:59;8.25;;;3.70;;
75459;SDS011;64039;53.060;9.342;2022-10-16T06:43:27;6.18;;;3.35;;
75459;SDS011;64039;53.060;9.342;2022-10-16T06:45:57;7.93;;;3.60;;
75459;SDS011;64039;53.060;9.342;2022-10-16T06:48:23;8.02;;;3.92;;
75459;SDS011;64039;53.060;9.342;2022-10-16T06:50:59;7.30;;;3.17;;
75459;SDS011;64039;53.060;9.342;2022-10-16T06:53:27;7.03;;;3.17;;
75459;SDS011;64039;53.060;9.342;2022-10-16T06:55:54;6.05;;;3.30;;
75459;SDS011;64039;53.060;9.342;2022-10-16T06:58:19;5.97;;;2.88;;
75459;SDS011;64039;53.060;9.342;2022-10-16T07:00:45;7.95;;;3.33;;
75459;SDS011;64039;53.060;9.342;2022-10-16T07:03:11;6.65;;;2.95;;
75459;SDS011;64039;53.060;9.342;2022-10-16T07:05:40;6.32;;;2.90;;
75459;SDS011;64039;53.060;9.342;2022-10-16T07:08:07;6.45;;;3.20;;
75459;SDS011;64039;53.060;9.342;2022-10-16T07:10:33;8.02;;;2.92;;
75459;SDS011;64039;53.060;9.342;2022-10-16T07:12:59;5.18;;;2.95;;
75459;SDS011;64039;53.060;9.342;2022-10-16T07:15:25;6.03;;;3.45;;
75459;SDS011;64039;53.060;9.342;2022-10-16T07:17:51;6.35;;;3.20;;
75459;SDS011;64039;53.060;9.342;2022-10-16T07:20:17;5.93;;;2.63;;
75459;SDS011;64039;53.060;9.342;2022-10-16T07:22:43;8.43;;;3.28;;
75459;SDS011;64039;53.060;9.342;2022-10-16T07:25:08;7.30;;;2.92;;
75459;SDS011;64039;53.060;9.342;2022-10-16T07:27:34;4.82;;;3.00;;
75459;SDS011;64039;53.060;9.342;2022-10-16T07:29:59;8.00;;;2.72;;
75459;SDS011;64039;53.060;9.342;2022-10-16T07:32:25;7.05;;;3.60;;
75459;SDS011;64039;53.060;9.342;2022-10-16T07:34:51;5.53;;;3.10;;
75459;SDS011;64039;53.060;9.342;2022-10-16T07:37:17;11.70;;;5.50;;
75459;SDS011;64039;53.060;9.342;2022-10-16T07:39:43;5.25;;;3.35;;
75459;SDS011;64039;53.060;9.342;2022-10-16T07:42:08;5.45;;;2.95;;
75459;SDS011;64039;53.060;9.342;2022-10-16T07:44:34;5.85;;;2.88;;
75459;SDS011;64039;53.060;9.342;2022-10-16T07:46:59;5.53;;;3.13;;
75459;SDS011;64039;53.060;9.342;2022-10-16T07:49:25;4.00;;;2.20;;
75459;SDS011;64039;53.060;9.342;2022-10-16T07:51:50;5.75;;;2.70;;
75459;SDS011;64039;53.060;9.342;2022-10-16T07:54:16;4.30;;;2.17;;
75459;SDS011;64039;53.060;9.342;2022-10-16T07:56:41;5.13;;;2.30;;
75459;SDS011;64039;53.060;9.342;2022-10-16T07:59:07;4.53;;;2.75;;
75459;SDS011;64039;53.060;9.342;2022-10-16T08:01:32;5.60;;;2.30;;
75459;SDS011;64039;53.060;9.342;2022-10-16T08:03:57;8.35;;;2.58;;
75459;SDS011;64039;53.060;9.342;2022-10-16T08:06:23;5.15;;;2.33;;
75459;SDS011;64039;53.060;9.342;2022-10-16T08:08:48;5.65;;;2.30;;
75459;SDS011;64039;53.060;9.342;2022-10-16T08:11:14;4.90;;;2.15;;
75459;SDS011;64039;53.060;9.342;2022-10-16T08:13:40;4.65;;;1.92;;
75459;SDS011;64039;53.060;9.342;2022-10-16T08:16:06;3.40;;;2.08;;
75459;SDS011;64039;53.060;9.342;2022-10-16T08:18:33;3.65;;;2.08;;
75459;SDS011;64039;53.060;9.342;2022-10-16T08:21:03;3.50;;;2.38;;
75459;SDS011;64039;53.060;9.342;2022-10-16T08:23:30;6.63;;;2.10;;
75459;SDS011;64039;53.060;9.342;2022-10-16T08:25:56;4.55;;;2.08;;
75459;SDS011;64039;53.060;9.342;2022-10-16T08:28:27;5.72;;;2.03;;
75459;SDS011;64039;53.060;9.342;2022-10-16T08:30:53;3.10;;;2.00;;
75459;SDS011;64039;53.060;9.342;2022-10-16T08:33:18;3.95;;;2.00;;
75459;SDS011;64039;53.060;9.342;2022-10-16T08:35:50;7.93;;;2.83;;
75459;SDS011;64039;53.060;9.342;2022-10-16T08:38:17;5.53;;;1.80;;
75459;SDS011;64039;53.060;9.342;2022-10-16T08:40:42;4.75;;;2.42;;
75459;SDS011;64039;53.060;9.342;2022-10-16T08:43:24;5.63;;;1.95;;
75459;SDS011;64039;53.060;9.342;2022-10-16T08:46:06;4.65;;;1.85;;
75459;SDS011;64039;53.060;9.342;2022-10-16T08:48:48;4.93;;;1.60;;
75459;SDS011;64039;53.060;9.342;2022-10-16T08:51:19;4.05;;;2.05;;
75459;SDS011;64039;53.060;9.342;2022-10-16T08:53:50;3.53;;;1.60;;
75459;SDS011;64039;53.060;9.342;2022-10-16T08:56:20;2.92;;;1.50;;
75459;SDS011;64039;53.060;9.342;2022-10-16T08:58:46;4.28;;;1.40;;
75459;SDS011;64039;53.060;9.342;2022-10-16T09:01:14;3.58;;;1.58;;
75459;SDS011;64039;53.060;9.342;2022-10-16T09:11:57;3.92;;;1.10;;
75459;SDS011;64039;53.060;9.342;2022-10-16T09:23:13;4.07;;;1.00;;
75459;SDS011;64039;53.060;9.342;2022-10-16T09:25:47;3.97;;;1.10;;
75459;SDS011;64039;53.060;9.342;2022-10-16T09:28:15;3.92;;;1.73;;
75459;SDS011;64039;53.060;9.342;2022-10-16T09:30:42;3.50;;;0.90;;
75459;SDS011;64039;53.060;9.342;2022-10-16T09:33:09;3.00;;;1.00;;
75459;SDS011;64039;53.060;9.342;2022-10-16T09:35:37;4.32;;;0.98;;
75459;SDS011;64039;53.060;9.342;2022-10-16T09:38:05;2.38;;;1.20;;
75459;SDS011;64039;53.060;9.342;2022-10-16T09:40:38;2.40;;;1.00;;
75459;SDS011;64039;53.060;9.342;2022-10-16T09:43:20;4.90;;;1.13;;
75459;SDS011;64039;53.060;9.342;2022-10-16T09:46:07;4.70;;;1.10;;
75459;SDS011;64039;53.060;9.342;2022-10-16T09:48:43;2.72;;;1.08;;
75459;SDS011;64039;53.060;9.342;2022-10-16T09:51:42;1.38;;;0.98;;
75459;SDS011;64039;53.060;9.342;2022-10-16T09:56:34;3.33;;;1.10;;
75459;SDS011;64039;53.060;9.342;2022-10-16T09:59:08;3.35;;;1.10;;
75459;SDS011;64039;53.060;9.342;2022-10-16T10:01:37;1.55;;;0.90;;
75459;SDS011;64039;53.060;9.342;2022-10-16T10:04:05;4.80;;;0.98;;
75459;SDS011;64039;53.060;9.342;2022-10-16T10:06:35;3.95;;;1.08;;
75459;SDS011;64039;53.060;9.342;2022-10-16T10:11:53;4.93;;;1.10;;
75459;SDS011;64039;53.060;9.342;2022-10-16T10:14:39;3.80;;;1.00;;
75459;SDS011;64039;53.060;9.342;2022-10-16T10:17:09;3.63;;;1.13;;
75459;SDS011;64039;53.060;9.342;2022-10-16T10:19:53;4.57;;;0.85;;
75459;SDS011;64039;53.060;9.342;2022-10-16T10:22:25;3.55;;;0.90;;
75459;SDS011;64039;53.060;9.342;2022-10-16T10:24:54;5.03;;;0.80;;
75459;SDS011;64039;53.060;9.342;2022-10-16T10:27:21;4.15;;;0.95;;
75459;SDS011;64039;53.060;9.342;2022-10-16T10:40:58;4.78;;;0.70;;
75459;SDS011;64039;53.060;9.342;2022-10-16T10:46:15;4.68;;;0.75;;
75459;SDS011;64039;53.060;9.342;2022-10-16T11:08:42;3.58;;;0.63;;
75459;SDS011;64039;53.060;9.342;2022-10-16T11:14:20;5.25;;;0.85;;
75459;SDS011;64039;53.060;9.342;2022-10-16T11:19:34;3.22;;;0.70;;
75459;SDS011;64039;53.060;9.342;2022-10-16T11:22:16;3.25;;;0.77;;
75459;SDS011;64039;53.060;9.342;2022-10-16T11:25:03;2.13;;;0.73;;
75459;SDS011;64039;53.060;9.342;2022-10-16T11:28:20;2.90;;;0.70;;
75459;SDS011;64039;53.060;9.342;2022-10-16T11:30:27;2.78;;;0.80;;
75459;SDS011;64039;53.060;9.342;2022-10-16T11:39:21;3.50;;;0.73;;
75459;SDS011;64039;53.060;9.342;2022-10-16T11:41:37;5.32;;;0.80;;
75459;SDS011;64039;53.060;9.342;2022-10-16T11:49:30;2.88;;;0.60;;
75459;SDS011;64039;53.060;9.342;2022-10-16T11:55:17;3.08;;;0.60;;
75459;SDS011;64039;53.060;9.342;2022-10-16T11:57:47;4.47;;;0.70;;
75459;SDS011;64039;53.060;9.342;2022-10-16T12:00:21;4.05;;;0.80;;
75459;SDS011;64039;53.060;9.342;2022-10-16T12:08:31;6.10;;;0.75;;
75459;SDS011;64039;53.060;9.342;2022-10-16T12:11:30;3.60;;;0.68;;
75459;SDS011;64039;53.060;9.342;2022-10-16T12:16:58;5.72;;;1.05;;
75459;SDS011;64039;53.060;9.342;2022-10-16T12:22:37;3.58;;;0.85;;
75459;SDS011;64039;53.060;9.342;2022-10-16T12:30:39;5.97;;;2.00;;
75459;SDS011;64039;53.060;9.342;2022-10-16T12:33:15;3.22;;;0.68;;
75459;SDS011;64039;53.060;9.342;2022-10-16T12:35:46;5.43;;;0.90;;
75459;SDS011;64039;53.060;9.342;2022-10-16T12:38:16;3.72;;;0.75;;
75459;SDS011;64039;53.060;9.342;2022-10-16T12:40:45;4.30;;;0.68;;
75459;SDS011;64039;53.060;9.342;2022-10-16T12:43:42;2.38;;;0.60;;
75459;SDS011;64039;53.060;9.342;2022-10-16T12:48:37;6.10;;;1.30;;
75459;SDS011;64039;53.060;9.342;2022-10-16T12:51:12;1.60;;;0.68;;
75459;SDS011;64039;53.060;9.342;2022-10-16T12:53:46;3.65;;;0.90;;
75459;SDS011;64039;53.060;9.342;2022-10-16T13:13:35;3.27;;;0.70;;
75459;SDS011;64039;53.060;9.342;2022-10-16T13:16:07;4.35;;;0.80;;
75459;SDS011;64039;53.060;9.342;2022-10-16T13:29:04;5.40;;;0.55;;
75459;SDS011;64039;53.060;9.342;2022-10-16T13:31:30;2.60;;;0.70;;
75459;SDS011;64039;53.060;9.342;2022-10-16T13:33:57;4.53;;;0.60;;
75459;SDS011;64039;53.060;9.342;2022-10-16T13:36:28;5.13;;;0.65;;
75459;SDS011;64039;53.060;9.342;2022-10-16T13:38:59;3.67;;;0.88;;
75459;SDS011;64039;53.060;9.342;2022-10-16T13:41:36;2.83;;;0.60;;
75459;SDS011;64039;53.060;9.342;2022-10-16T13:44:02;5.95;;;0.73;;
75459;SDS011;64039;53.060;9.342;2022-10-16T13:46:29;5.03;;;1.10;;
75459;SDS011;64039;53.060;9.342;2022-10-16T13:49:17;3.00;;;0.60;;
75459;SDS011;64039;53.060;9.342;2022-10-16T13:51:54;3.83;;;0.80;;
75459;SDS011;64039;53.060;9.342;2022-10-16T13:54:23;4.20;;;0.75;;
75459;SDS011;64039;53.060;9.342;2022-10-16T13:56:49;5.20;;;1.05;;
75459;SDS011;64039;53.060;9.342;2022-10-16T13:59:22;2.83;;;0.60;;
75459;SDS011;64039;53.060;9.342;2022-10-16T14:01:48;3.63;;;0.90;;
75459;SDS011;64039;53.060;9.342;2022-10-16T14:04:15;2.17;;;0.77;;
75459;SDS011;64039;53.060;9.342;2022-10-16T14:06:42;5.38;;;0.60;;
75459;SDS011;64039;53.060;9.342;2022-10-16T14:09:14;2.55;;;0.60;;
75459;SDS011;64039;53.060;9.342;2022-10-16T14:11:58;2.28;;;0.50;;
75459;SDS011;64039;53.060;9.342;2022-10-16T14:14:27;5.50;;;0.80;;
75459;SDS011;64039;53.060;9.342;2022-10-16T14:17:06;3.90;;;1.40;;
75459;SDS011;64039;53.060;9.342;2022-10-16T14:19:39;4.10;;;0.70;;
75459;SDS011;64039;53.060;9.342;2022-10-16T14:22:11;3.28;;;1.08;;
75459;SDS011;64039;53.060;9.342;2022-10-16T14:24:50;4.07;;;1.00;;
75459;SDS011;64039;53.060;9.342;2022-10-16T14:27:29;3.00;;;1.17;;
75459;SDS011;64039;53.060;9.342;2022-10-16T14:32:39;3.83;;;0.60;;
75459;SDS011;64039;53.060;9.342;2022-10-16T14:35:21;2.83;;;0.50;;
75459;SDS011;64039;53.060;9.342;2022-10-16T14:37:51;4.85;;;0.80;;
75459;SDS011;64039;53.060;9.342;2022-10-16T14:40:19;4.97;;;0.80;;
75459;SDS011;64039;53.060;9.342;2022-10-16T14:42:48;4.32;;;0.80;;
75459;SDS011;64039;53.060;9.342;2022-10-16T14:45:15;6.90;;;0.90;;
75459;SDS011;64039;53.060;9.342;2022-10-16T14:47:47;4.40;;;0.90;;
75459;SDS011;64039;53.060;9.342;2022-10-16T14:50:15;3.42;;;0.70;;
75459;SDS011;64039;53.060;9.342;2022-10-16T14:52:40;5.13;;;0.75;;
75459;SDS011;64039;53.060;9.342;2022-10-16T14:55:07;4.78;;;0.77;;
75459;SDS011;64039;53.060;9.342;2022-10-16T14:57:33;2.25;;;0.65;;
75459;SDS011;64039;53.060;9.342;2022-10-16T15:00:02;2.38;;;0.82;;
75459;SDS011;64039;53.060;9.342;2022-10-16T15:02:29;3.90;;;0.80;;
75459;SDS011;64039;53.060;9.342;2022-10-16T15:05:23;4.22;;;0.77;;
75459;SDS011;64039;53.060;9.342;2022-10-16T15:07:49;2.33;;;0.70;;
75459;SDS011;64039;53.060;9.342;2022-10-16T15:10:16;6.28;;;0.93;;
75459;SDS011;64039;53.060;9.342;2022-10-16T15:12:42;3.55;;;0.80;;
75459;SDS011;64039;53.060;9.342;2022-10-16T15:15:15;2.55;;;0.88;;
75459;SDS011;64039;53.060;9.342;2022-10-16T15:17:53;3.97;;;0.83;;
75459;SDS011;64039;53.060;9.342;2022-10-16T15:20:29;4.30;;;0.80;;
75459;SDS011;64039;53.060;9.342;2022-10-16T15:23:06;3.95;;;0.85;;
75459;SDS011;64039;53.060;9.342;2022-10-16T15:25:41;4.85;;;0.90;;
75459;SDS011;64039;53.060;9.342;2022-10-16T15:28:09;9.27;;;1.30;;
75459;SDS011;64039;53.060;9.342;2022-10-16T15:30:35;5.63;;;0.90;;
75459;SDS011;64039;53.060;9.342;2022-10-16T15:33:03;3.80;;;1.02;;
75459;SDS011;64039;53.060;9.342;2022-10-16T15:35:30;4.13;;;0.95;;
75459;SDS011;64039;53.060;9.342;2022-10-16T15:37:56;9.27;;;0.90;;
75459;SDS011;64039;53.060;9.342;2022-10-16T15:40:22;3.22;;;1.05;;
75459;SDS011;64039;53.060;9.342;2022-10-16T15:42:48;11.30;;;1.15;;
75459;SDS011;64039;53.060;9.342;2022-10-16T15:45:14;4.72;;;0.85;;
75459;SDS011;64039;53.060;9.342;2022-10-16T15:47:41;4.18;;;0.93;;
75459;SDS011;64039;53.060;9.342;2022-10-16T15:50:08;2.55;;;0.80;;
75459;SDS011;64039;53.060;9.342;2022-10-16T15:52:36;5.10;;;1.00;;
75459;SDS011;64039;53.060;9.342;2022-10-16T15:55:02;5.07;;;1.05;;
75459;SDS011;64039;53.060;9.342;2022-10-16T15:57:31;2.80;;;0.75;;
75459;SDS011;64039;53.060;9.342;2022-10-16T15:59:56;2.70;;;0.80;;
75459;SDS011;64039;53.060;9.342;2022-10-16T16:02:21;7.03;;;0.93;;
75459;SDS011;64039;53.060;9.342;2022-10-16T16:04:47;6.10;;;0.85;;
75459;SDS011;64039;53.060;9.342;2022-10-16T16:07:12;4.47;;;1.08;;
75459;SDS011;64039;53.060;9.342;2022-10-16T16:09:38;3.10;;;0.80;;
75459;SDS011;64039;53.060;9.342;2022-10-16T16:12:03;7.30;;;0.93;;
75459;SDS011;64039;53.060;9.342;2022-10-16T16:14:28;2.63;;;0.73;;
75459;SDS011;64039;53.060;9.342;2022-10-16T16:16:54;6.32;;;1.10;;
75459;SDS011;64039;53.060;9.342;2022-10-16T16:19:20;4.18;;;1.70;;
75459;SDS011;64039;53.060;9.342;2022-10-16T16:21:46;4.75;;;1.00;;
75459;SDS011;64039;53.060;9.342;2022-10-16T16:24:12;4.47;;;1.02;;
75459;SDS011;64039;53.060;9.342;2022-10-16T16:26:38;6.47;;;1.38;;
75459;SDS011;64039;53.060;9.342;2022-10-16T16:29:11;7.55;;;1.33;;
75459;SDS011;64039;53.060;9.342;2022-10-16T16:31:39;4.65;;;0.90;;
75459;SDS011;64039;53.060;9.342;2022-10-16T16:34:06;5.78;;;0.85;;
75459;SDS011;64039;53.060;9.342;2022-10-16T16:36:32;7.05;;;1.48;;
75459;SDS011;64039;53.060;9.342;2022-10-16T16:38:58;3.97;;;0.77;;
75459;SDS011;64039;53.060;9.342;2022-10-16T16:41:24;5.38;;;0.93;;
75459;SDS011;64039;53.060;9.342;2022-10-16T16:43:52;4.90;;;0.90;;
75459;SDS011;64039;53.060;9.342;2022-10-16T16:46:18;4.93;;;1.00;;
75459;SDS011;64039;53.060;9.342;2022-10-16T16:48:45;6.20;;;1.15;;
75459;SDS011;64039;53.060;9.342;2022-10-16T16:51:12;3.35;;;0.98;;
75459;SDS011;64039;53.060;9.342;2022-10-16T16:53:41;5.38;;;0.90;;
75459;SDS011;64039;53.060;9.342;2022-10-16T16:56:07;4.03;;;0.90;;
75459;SDS011;64039;53.060;9.342;2022-10-16T16:58:33;6.40;;;1.17;;
75459;SDS011;64039;53.060;9.342;2022-10-16T17:00:59;6.38;;;1.15;;
75459;SDS011;64039;53.060;9.342;2022-10-16T17:03:33;8.18;;;1.10;;
75459;SDS011;64039;53.060;9.342;2022-10-16T17:06:03;7.45;;;1.33;;
75459;SDS011;64039;53.060;9.342;2022-10-16T17:08:31;9.43;;;1.20;;
75459;SDS011;64039;53.060;9.342;2022-10-16T17:10:58;5.35;;;1.13;;
75459;SDS011;64039;53.060;9.342;2022-10-16T17:13:24;3.53;;;1.08;;
75459;SDS011;64039;53.060;9.342;2022-10-16T17:15:51;4.72;;;1.10;;
75459;SDS011;64039;53.060;9.342;2022-10-16T17:18:17;4.50;;;1.30;;
75459;SDS011;64039;53.060;9.342;2022-10-16T17:20:43;5.55;;;1.17;;
75459;SDS011;64039;53.060;9.342;2022-10-16T17:23:09;4.80;;;1.45;;
75459;SDS011;64039;53.060;9.342;2022-10-16T17:25:36;9.23;;;1.90;;
75459;SDS011;64039;53.060;9.342;2022-10-16T17:28:02;7.10;;;1.80;;
75459;SDS011;64039;53.060;9.342;2022-10-16T17:30:28;4.32;;;1.30;;